Time,TemperatureF,DewpointF,PressureIn,WindDirection,WindDirectionDegrees,WindSpeedMPH,WindSpeedGustMPH,Humidity,HourlyPrecipIn,Conditions,Clouds,dailyrainin,SoftwareType,DateUTC
2013-04-10 00:00:00,61.0,57.0,27.95,NNE,22,0.0,0.0,87,0.00,,,0.00,Rainwise IP-100,2013-04-10 04:00:00,
2013-04-10 00:01:00,61.0,57.0,27.95,NNE,22,0.0,0.0,87,0.00,,,0.00,Rainwise IP-100,2013-04-10 04:01:00,
2013-04-10 00:06:00,61.0,56.5,27.95,NNE,22,0.0,0.0,86,0.00,,,0.00,Rainwise IP-100,2013-04-10 04:06:00,
2013-04-10 00:11:00,61.0,56.5,27.94,NNE,22,0.0,0.0,85,0.00,,,0.00,Rainwise IP-100,2013-04-10 04:11:00,
2013-04-10 00:16:00,61.0,56.5,27.94,NNE,22,0.0,0.0,86,0.00,,,0.00,Rainwise IP-100,2013-04-10 04:16:00,
2013-04-10 00:21:00,62.0,56.5,27.94,SSW,202,0.0,5.0,83,0.00,,,0.00,Rainwise IP-100,2013-04-10 04:21:00,
2013-04-10 00:26:00,63.0,57.0,27.94,SSW,202,0.0,0.0,81,0.00,,,0.00,Rainwise IP-100,2013-04-10 04:26:00,
2013-04-10 00:31:00,62.0,56.5,27.94,North,360,0.0,0.0,82,0.00,,,0.00,Rainwise IP-100,2013-04-10 04:31:00,
2013-04-10 00:36:00,63.0,57.5,27.94,WSW,247,0.0,3.0,82,0.00,,,0.00,Rainwise IP-100,2013-04-10 04:36:00,
2013-04-10 00:41:00,62.0,56.0,27.94,WSW,247,0.0,0.0,81,0.00,,,0.00,Rainwise IP-100,2013-04-10 04:41:00,
2013-04-10 00:46:00,62.0,57.0,27.94,SE,135,0.0,2.0,84,0.00,,,0.00,Rainwise IP-100,2013-04-10 04:46:00,
2013-04-10 00:51:00,62.0,57.0,27.94,ENE,67,0.0,2.0,84,0.00,,,0.00,Rainwise IP-100,2013-04-10 04:51:00,
2013-04-10 00:56:00,62.0,57.5,27.94,NE,45,0.0,2.0,85,0.00,,,0.00,Rainwise IP-100,2013-04-10 04:56:00,
2013-04-10 01:01:00,61.0,57.0,27.94,NE,45,0.0,0.0,87,0.00,,,0.00,Rainwise IP-100,2013-04-10 05:01:00,
2013-04-10 01:06:00,61.0,56.5,27.94,NE,45,0.0,3.0,86,0.00,,,0.00,Rainwise IP-100,2013-04-10 05:06:00,
2013-04-10 01:11:00,61.0,57.0,27.94,NE,45,0.0,0.0,87,0.00,,,0.00,Rainwise IP-100,2013-04-10 05:11:00,
2013-04-10 01:16:00,61.0,58.0,27.94,NE,45,0.0,0.0,90,0.00,,,0.00,Rainwise IP-100,2013-04-10 05:16:00,
2013-04-10 01:21:00,60.0,57.0,27.94,NE,45,0.0,0.0,90,0.00,,,0.00,Rainwise IP-100,2013-04-10 05:21:00,
2013-04-10 01:26:00,60.0,57.5,27.94,NE,45,0.0,0.0,92,0.00,,,0.00,Rainwise IP-100,2013-04-10 05:26:00,
2013-04-10 01:31:00,61.0,58.0,27.94,WSW,247,0.0,1.0,91,0.00,,,0.00,Rainwise IP-100,2013-04-10 05:31:00,
2013-04-10 01:36:00,61.0,57.5,27.94,South,180,0.0,3.0,89,0.00,,,0.00,Rainwise IP-100,2013-04-10 05:36:00,
2013-04-10 01:41:00,60.0,56.0,27.94,South,180,0.0,0.0,87,0.00,,,0.00,Rainwise IP-100,2013-04-10 05:41:00,
2013-04-10 01:46:00,60.0,57.0,27.94,South,180,0.0,0.0,91,0.00,,,0.00,Rainwise IP-100,2013-04-10 05:46:00,
2013-04-10 01:51:00,59.0,57.5,27.94,SE,135,0.0,0.0,95,0.00,,,0.00,Rainwise IP-100,2013-04-10 05:51:00,
2013-04-10 01:56:00,59.0,57.5,27.94,SE,135,0.0,0.0,95,0.00,,,0.00,Rainwise IP-100,2013-04-10 05:56:00,
2013-04-10 02:01:00,58.0,57.5,27.95,SE,135,0.0,0.0,97,0.00,,,0.00,Rainwise IP-100,2013-04-10 06:01:00,
2013-04-10 02:06:00,58.0,57.5,27.95,SE,135,0.0,0.0,98,0.00,,,0.00,Rainwise IP-100,2013-04-10 06:06:00,
2013-04-10 02:11:00,58.0,58.0,27.94,SE,135,0.0,0.0,99,0.00,,,0.00,Rainwise IP-100,2013-04-10 06:11:00,
2013-04-10 02:16:00,57.0,57.0,27.94,SE,135,0.0,0.0,100,0.00,,,0.00,Rainwise IP-100,2013-04-10 06:16:00,
2013-04-10 02:21:00,57.0,57.0,27.94,SE,135,0.0,0.0,100,0.00,,,0.00,Rainwise IP-100,2013-04-10 06:21:00,
2013-04-10 02:26:00,57.0,57.0,27.94,NNE,22,0.0,0.0,100,0.00,,,0.00,Rainwise IP-100,2013-04-10 06:26:00,
2013-04-10 02:31:00,58.0,58.0,27.94,NNE,22,0.0,0.0,100,0.00,,,0.00,Rainwise IP-100,2013-04-10 06:31:00,
2013-04-10 02:37:00,58.0,58.0,27.94,NNE,22,0.0,0.0,100,0.00,,,0.00,Rainwise IP-100,2013-04-10 06:37:00,
2013-04-10 02:42:00,58.0,58.0,27.94,NNE,22,0.0,0.0,100,0.00,,,0.00,Rainwise IP-100,2013-04-10 06:42:00,
2013-04-10 02:47:00,58.0,58.0,27.94,ENE,67,0.0,0.0,100,0.00,,,0.00,Rainwise IP-100,2013-04-10 06:47:00,
2013-04-10 02:52:00,58.0,58.0,27.93,ENE,67,0.0,0.0,100,0.00,,,0.00,Rainwise IP-100,2013-04-10 06:52:00,
2013-04-10 02:57:00,57.0,57.0,27.93,ENE,67,0.0,0.0,100,0.00,,,0.00,Rainwise IP-100,2013-04-10 06:57:00,
2013-04-10 03:02:00,57.0,57.0,27.93,ENE,67,0.0,0.0,100,0.00,,,0.00,Rainwise IP-100,2013-04-10 07:02:00,
2013-04-10 03:07:00,58.0,58.0,27.93,NE,45,0.0,2.0,100,0.00,,,0.00,Rainwise IP-100,2013-04-10 07:07:00,
2013-04-10 03:12:00,58.0,58.0,27.92,NE,45,0.0,0.0,100,0.00,,,0.00,Rainwise IP-100,2013-04-10 07:12:00,
2013-04-10 03:17:00,58.0,58.0,27.92,NE,45,0.0,0.0,100,0.00,,,0.00,Rainwise IP-100,2013-04-10 07:17:00,
2013-04-10 03:22:00,58.0,58.0,27.92,NE,45,0.0,0.0,100,0.00,,,0.00,Rainwise IP-100,2013-04-10 07:22:00,
2013-04-10 03:27:00,57.0,57.0,27.92,NE,45,0.0,0.0,100,0.00,,,0.00,Rainwise IP-100,2013-04-10 07:27:00,
2013-04-10 03:32:00,57.0,57.0,27.92,NE,45,0.0,0.0,100,0.00,,,0.00,Rainwise IP-100,2013-04-10 07:32:00,
2013-04-10 03:37:00,57.0,57.0,27.92,SE,135,0.0,2.0,100,0.00,,,0.00,Rainwise IP-100,2013-04-10 07:37:00,
2013-04-10 03:42:00,57.0,57.0,27.92,SSE,157,0.0,2.0,100,0.00,,,0.00,Rainwise IP-100,2013-04-10 07:42:00,
2013-04-10 03:47:00,56.0,56.0,27.92,SSE,157,0.0,1.0,100,0.00,,,0.00,Rainwise IP-100,2013-04-10 07:47:00,
2013-04-10 03:52:00,56.0,56.0,27.93,SSE,157,0.0,0.0,100,0.00,,,0.00,Rainwise IP-100,2013-04-10 07:52:00,
2013-04-10 03:57:00,55.0,55.0,27.93,SSE,157,0.0,0.0,100,0.00,,,0.00,Rainwise IP-100,2013-04-10 07:57:00,
2013-04-10 04:02:00,54.0,54.0,27.92,SSE,157,0.0,2.0,100,0.00,,,0.00,Rainwise IP-100,2013-04-10 08:02:00,
2013-04-10 04:07:00,54.0,54.0,27.92,SSE,157,0.0,0.0,100,0.00,,,0.00,Rainwise IP-100,2013-04-10 08:07:00,
2013-04-10 04:12:00,53.0,53.0,27.93,SSE,157,0.0,0.0,100,0.00,,,0.00,Rainwise IP-100,2013-04-10 08:12:00,
2013-04-10 04:17:00,53.0,53.0,27.93,SSE,157,0.0,0.0,100,0.00,,,0.00,Rainwise IP-100,2013-04-10 08:17:00,
2013-04-10 04:22:00,52.0,52.0,27.94,SSE,157,0.0,0.0,100,0.00,,,0.00,Rainwise IP-100,2013-04-10 08:22:00,
2013-04-10 04:27:00,52.0,52.0,27.94,SSE,157,0.0,0.0,100,0.00,,,0.00,Rainwise IP-100,2013-04-10 08:27:00,
2013-04-10 04:32:00,52.0,52.0,27.93,SSE,157,0.0,0.0,100,0.00,,,0.00,Rainwise IP-100,2013-04-10 08:32:00,
2013-04-10 04:37:00,52.0,52.0,27.93,SSE,157,0.0,0.0,100,0.00,,,0.00,Rainwise IP-100,2013-04-10 08:37:00,
2013-04-10 04:42:00,51.0,51.0,27.93,SSE,157,0.0,0.0,100,0.00,,,0.00,Rainwise IP-100,2013-04-10 08:42:00,
2013-04-10 04:47:00,51.0,51.0,27.93,SSE,157,0.0,0.0,100,0.00,,,0.00,Rainwise IP-100,2013-04-10 08:47:00,
2013-04-10 04:52:00,51.0,51.0,27.94,ESE,112,0.0,1.0,100,0.00,,,0.00,Rainwise IP-100,2013-04-10 08:52:00,
2013-04-10 04:58:00,51.0,50.0,27.94,ESE,112,0.0,0.0,95,0.00,,,0.00,Rainwise IP-100,2013-04-10 08:58:00,
2013-04-10 05:03:00,51.0,51.0,27.93,ESE,112,0.0,0.0,99,0.00,,,0.00,Rainwise IP-100,2013-04-10 09:03:00,
2013-04-10 05:09:00,50.0,49.0,27.93,ESE,112,0.0,0.0,98,0.00,,,0.00,Rainwise IP-100,2013-04-10 09:09:00,
2013-04-10 05:14:00,50.0,49.0,27.93,ESE,112,0.0,0.0,96,0.00,,,0.00,Rainwise IP-100,2013-04-10 09:14:00,
2013-04-10 05:19:00,50.0,49.0,27.93,ESE,112,0.0,0.0,96,0.00,,,0.00,Rainwise IP-100,2013-04-10 09:19:00,
2013-04-10 05:24:00,50.0,48.0,27.94,ESE,112,0.0,0.0,94,0.00,,,0.00,Rainwise IP-100,2013-04-10 09:24:00,
2013-04-10 05:29:00,50.0,49.0,27.94,ESE,112,0.0,0.0,96,0.00,,,0.00,Rainwise IP-100,2013-04-10 09:29:00,
2013-04-10 05:34:00,50.0,48.0,27.94,ESE,112,0.0,0.0,95,0.00,,,0.00,Rainwise IP-100,2013-04-10 09:34:00,
2013-04-10 05:40:00,50.0,50.0,27.94,ESE,112,0.0,0.0,100,0.00,,,0.00,Rainwise IP-100,2013-04-10 09:40:00,
2013-04-10 05:45:00,50.0,47.5,27.94,ESE,112,0.0,0.0,93,0.00,,,0.00,Rainwise IP-100,2013-04-10 09:45:00,
2013-04-10 05:50:00,50.0,47.5,27.94,ESE,112,0.0,0.0,93,0.00,,,0.00,Rainwise IP-100,2013-04-10 09:50:00,
2013-04-10 05:55:00,50.0,47.0,27.94,ESE,112,0.0,0.0,88,0.00,,,0.00,Rainwise IP-100,2013-04-10 09:55:00,
2013-04-10 06:00:00,50.0,46.0,27.94,ESE,112,0.0,0.0,85,0.00,,,0.00,Rainwise IP-100,2013-04-10 10:00:00,
2013-04-10 06:06:00,51.0,46.0,27.94,ESE,112,0.0,0.0,82,0.00,,,0.00,Rainwise IP-100,2013-04-10 10:06:00,
2013-04-10 06:12:00,51.0,47.5,27.93,ESE,112,0.0,0.0,88,0.00,,,0.00,Rainwise IP-100,2013-04-10 10:12:00,
2013-04-10 06:17:00,50.0,47.0,27.93,ESE,112,0.0,0.0,88,0.00,,,0.00,Rainwise IP-100,2013-04-10 10:17:00,
2013-04-10 06:22:00,50.0,48.0,27.93,ESE,112,0.0,0.0,94,0.00,,,0.00,Rainwise IP-100,2013-04-10 10:22:00,
2013-04-10 06:27:00,50.0,48.0,27.93,ESE,112,0.0,0.0,94,0.00,,,0.00,Rainwise IP-100,2013-04-10 10:27:00,
2013-04-10 06:32:00,49.0,47.0,27.94,ESE,112,0.0,0.0,90,0.00,,,0.00,Rainwise IP-100,2013-04-10 10:32:00,
2013-04-10 06:38:00,49.0,47.0,27.94,ESE,112,0.0,0.0,90,0.00,,,0.00,Rainwise IP-100,2013-04-10 10:38:00,
2013-04-10 06:43:00,49.0,47.0,27.94,ESE,112,0.0,0.0,91,0.00,,,0.00,Rainwise IP-100,2013-04-10 10:43:00,
2013-04-10 06:48:00,49.0,47.0,27.94,ESE,112,0.0,0.0,90,0.00,,,0.00,Rainwise IP-100,2013-04-10 10:48:00,
2013-04-10 06:53:00,48.0,46.0,27.94,ESE,112,0.0,0.0,92,0.00,,,0.00,Rainwise IP-100,2013-04-10 10:53:00,
2013-04-10 06:58:00,48.0,46.0,27.94,ESE,112,0.0,0.0,92,0.00,,,0.00,Rainwise IP-100,2013-04-10 10:58:00,
2013-04-10 07:03:00,48.0,45.0,27.94,ESE,112,0.0,0.0,87,0.00,,,0.00,Rainwise IP-100,2013-04-10 11:03:00,
2013-04-10 07:09:00,47.0,42.0,27.94,ESE,112,0.0,0.0,84,0.00,,,0.00,Rainwise IP-100,2013-04-10 11:09:00,
2013-04-10 07:14:00,47.0,42.0,27.95,ESE,112,0.0,0.0,84,0.00,,,0.00,Rainwise IP-100,2013-04-10 11:14:00,
2013-04-10 07:19:00,47.0,42.0,27.95,ESE,112,0.0,0.0,84,0.00,,,0.00,Rainwise IP-100,2013-04-10 11:19:00,
2013-04-10 07:24:00,47.0,42.0,27.95,ESE,112,0.0,0.0,84,0.00,,,0.00,Rainwise IP-100,2013-04-10 11:24:00,
2013-04-10 07:30:00,47.0,43.0,27.96,ESE,112,0.0,0.0,86,0.00,,,0.00,Rainwise IP-100,2013-04-10 11:30:00,
2013-04-10 07:35:00,48.0,45.0,27.95,ESE,112,0.0,0.0,87,0.00,,,0.00,Rainwise IP-100,2013-04-10 11:35:00,
2013-04-10 07:40:00,48.0,45.0,27.95,ESE,112,0.0,0.0,88,0.00,,,0.00,Rainwise IP-100,2013-04-10 11:40:00,
2013-04-10 07:45:00,48.0,43.0,27.96,ESE,112,0.0,0.0,83,0.00,,,0.00,Rainwise IP-100,2013-04-10 11:45:00,
2013-04-10 07:52:00,48.0,43.0,27.96,ESE,112,0.0,0.0,83,0.00,,,0.00,Rainwise IP-100,2013-04-10 11:52:00,
2013-04-10 07:57:00,49.0,44.0,27.96,ESE,112,0.0,0.0,83,0.00,,,0.00,Rainwise IP-100,2013-04-10 11:57:00,
2013-04-10 08:02:00,49.0,44.0,27.96,ESE,112,0.0,0.0,83,0.00,,,0.00,Rainwise IP-100,2013-04-10 12:02:00,
2013-04-10 08:07:00,49.0,43.0,27.96,ESE,112,0.0,0.0,80,0.00,,,0.00,Rainwise IP-100,2013-04-10 12:07:00,
2013-04-10 08:12:00,50.0,44.0,27.95,ESE,112,0.0,0.0,80,0.00,,,0.00,Rainwise IP-100,2013-04-10 12:12:00,
2013-04-10 08:17:00,50.0,43.0,27.95,ESE,112,0.0,0.0,79,0.00,,,0.00,Rainwise IP-100,2013-04-10 12:17:00,
2013-04-10 08:23:00,51.0,45.0,27.95,ESE,112,0.0,0.0,78,0.00,,,0.00,Rainwise IP-100,2013-04-10 12:23:00,
2013-04-10 08:28:00,51.0,45.0,27.95,ESE,112,0.0,0.0,78,0.00,,,0.00,Rainwise IP-100,2013-04-10 12:28:00,
2013-04-10 08:34:00,52.0,45.0,27.94,ESE,112,0.0,0.0,78,0.00,,,0.00,Rainwise IP-100,2013-04-10 12:34:00,
2013-04-10 08:39:00,52.0,47.5,27.94,ESE,112,0.0,0.0,85,0.00,,,0.00,Rainwise IP-100,2013-04-10 12:39:00,
2013-04-10 08:44:00,53.0,53.0,27.94,West,270,0.0,0.0,99,0.00,,,0.00,Rainwise IP-100,2013-04-10 12:44:00,
2013-04-10 08:49:00,54.0,54.0,27.95,West,270,0.0,0.0,100,0.00,,,0.00,Rainwise IP-100,2013-04-10 12:49:00,
2013-04-10 08:54:00,55.0,54.5,27.95,West,270,0.0,0.0,97,0.00,,,0.00,Rainwise IP-100,2013-04-10 12:54:00,
2013-04-10 08:59:00,57.0,56.5,27.94,SSW,202,0.0,0.0,98,0.00,,,0.00,Rainwise IP-100,2013-04-10 12:59:00,
2013-04-10 09:04:00,58.0,58.0,27.94,SW,225,0.0,0.0,100,0.00,,,0.00,Rainwise IP-100,2013-04-10 13:04:00,
2013-04-10 09:09:00,59.0,59.0,27.95,SSW,202,0.0,0.0,100,0.00,,,0.00,Rainwise IP-100,2013-04-10 13:09:00,
2013-04-10 09:14:00,60.0,60.0,27.95,SSW,202,0.0,0.0,100,0.00,,,0.00,Rainwise IP-100,2013-04-10 13:14:00,
2013-04-10 09:19:00,62.0,62.0,27.94,SSW,202,0.0,0.0,100,0.00,,,0.00,Rainwise IP-100,2013-04-10 13:19:00,
2013-04-10 09:24:00,63.0,62.5,27.94,SSE,157,0.0,0.0,99,0.00,,,0.00,Rainwise IP-100,2013-04-10 13:24:00,
2013-04-10 09:29:00,64.0,61.0,27.94,SSE,157,0.0,0.0,90,0.00,,,0.00,Rainwise IP-100,2013-04-10 13:29:00,
2013-04-10 09:34:00,65.0,63.0,27.94,SSE,157,0.0,0.0,93,0.00,,,0.00,Rainwise IP-100,2013-04-10 13:34:00,
2013-04-10 09:39:00,67.0,62.0,27.93,SSE,157,0.0,0.0,83,0.00,,,0.00,Rainwise IP-100,2013-04-10 13:39:00,
2013-04-10 09:44:00,69.0,61.0,27.93,SSE,157,0.0,0.0,76,0.00,,,0.00,Rainwise IP-100,2013-04-10 13:44:00,
2013-04-10 09:49:00,69.0,59.0,27.94,WSW,247,0.0,0.0,71,0.00,,,0.00,Rainwise IP-100,2013-04-10 13:49:00,
2013-04-10 09:54:00,69.0,59.0,27.94,West,270,0.0,0.0,71,0.00,,,0.00,Rainwise IP-100,2013-04-10 13:54:00,
2013-04-10 09:59:00,70.0,60.0,27.93,West,270,0.0,0.0,70,0.00,,,0.00,Rainwise IP-100,2013-04-10 13:59:00,
2013-04-10 10:04:00,71.0,60.0,27.93,SSW,202,0.0,0.0,68,0.00,,,0.00,Rainwise IP-100,2013-04-10 14:04:00,
2013-04-10 10:09:00,72.0,59.5,27.92,SW,225,0.0,0.0,65,0.00,,,0.00,Rainwise IP-100,2013-04-10 14:09:00,
2013-04-10 10:14:00,72.0,59.5,27.92,WSW,247,0.0,0.0,65,0.00,,,0.00,Rainwise IP-100,2013-04-10 14:14:00,
2013-04-10 10:20:00,73.0,59.5,27.92,SW,225,0.0,0.0,62,0.00,,,0.00,Rainwise IP-100,2013-04-10 14:20:00,
2013-04-10 10:25:00,74.0,59.5,27.92,SSW,202,0.0,3.0,60,0.00,,,0.00,Rainwise IP-100,2013-04-10 14:25:00,
2013-04-10 10:30:00,74.0,60.5,27.92,WSW,247,0.0,3.0,62,0.00,,,0.00,Rainwise IP-100,2013-04-10 14:30:00,
2013-04-10 10:35:00,74.0,60.5,27.92,SW,225,0.0,3.0,62,0.00,,,0.00,Rainwise IP-100,2013-04-10 14:35:00,
2013-04-10 10:40:00,74.0,58.0,27.92,WNW,292,0.0,0.0,58,0.00,,,0.00,Rainwise IP-100,2013-04-10 14:40:00,
2013-04-10 10:45:00,75.0,59.0,27.92,SSW,202,1.0,4.0,57,0.00,,,0.00,Rainwise IP-100,2013-04-10 14:45:00,
2013-04-10 10:50:00,73.0,58.0,27.93,West,270,0.0,4.0,60,0.00,,,0.00,Rainwise IP-100,2013-04-10 14:50:00,
2013-04-10 10:55:00,73.0,59.5,27.93,West,270,2.0,3.0,62,0.00,,,0.00,Rainwise IP-100,2013-04-10 14:55:00,
2013-04-10 11:00:00,73.0,60.0,27.93,WSW,247,3.0,4.0,63,0.00,,,0.00,Rainwise IP-100,2013-04-10 15:00:00,
2013-04-10 11:05:00,73.0,59.0,27.93,WNW,292,3.0,4.0,61,0.00,,,0.00,Rainwise IP-100,2013-04-10 15:05:00,
2013-04-10 11:10:00,73.0,60.0,27.93,WSW,247,3.0,6.0,64,0.00,,,0.00,Rainwise IP-100,2013-04-10 15:10:00,
2013-04-10 11:15:00,73.0,59.0,27.93,WNW,292,4.0,7.0,61,0.00,,,0.00,Rainwise IP-100,2013-04-10 15:15:00,
2013-04-10 11:20:00,73.0,60.0,27.93,WNW,292,4.0,5.0,63,0.00,,,0.00,Rainwise IP-100,2013-04-10 15:20:00,
2013-04-10 11:25:00,74.0,60.0,27.93,West,270,2.0,5.0,61,0.00,,,0.00,Rainwise IP-100,2013-04-10 15:25:00,
2013-04-10 11:30:00,75.0,59.0,27.92,WNW,292,5.0,6.0,57,0.00,,,0.00,Rainwise IP-100,2013-04-10 15:30:00,
2013-04-10 11:35:00,74.0,57.5,27.92,West,270,3.0,6.0,57,0.00,,,0.00,Rainwise IP-100,2013-04-10 15:35:00,
2013-04-10 11:40:00,74.0,57.5,27.93,WNW,292,5.0,6.0,57,0.00,,,0.00,Rainwise IP-100,2013-04-10 15:40:00,
2013-04-10 11:45:00,74.0,55.0,27.93,NW,315,0.0,6.0,52,0.00,,,0.00,Rainwise IP-100,2013-04-10 15:45:00,
2013-04-10 11:50:00,75.0,57.5,27.92,NW,315,4.0,6.0,54,0.00,,,0.00,Rainwise IP-100,2013-04-10 15:50:00,
2013-04-10 11:55:00,75.0,57.5,27.92,WNW,292,3.0,6.0,55,0.00,,,0.00,Rainwise IP-100,2013-04-10 15:55:00,
2013-04-10 12:00:00,76.0,57.5,27.92,WSW,247,0.0,4.0,53,0.00,,,0.00,Rainwise IP-100,2013-04-10 16:00:00,
2013-04-10 12:05:00,76.0,57.5,27.92,WNW,292,0.0,5.0,53,0.00,,,0.00,Rainwise IP-100,2013-04-10 16:05:00,
2013-04-10 12:10:00,76.0,57.5,27.92,West,270,4.0,6.0,53,0.00,,,0.00,Rainwise IP-100,2013-04-10 16:10:00,
2013-04-10 12:15:00,76.0,57.5,27.92,South,180,0.0,7.0,53,0.00,,,0.00,Rainwise IP-100,2013-04-10 16:15:00,
2013-04-10 12:20:00,76.0,57.5,27.92,WNW,292,1.0,6.0,53,0.00,,,0.00,Rainwise IP-100,2013-04-10 16:20:00,
2013-04-10 12:25:00,77.0,59.0,27.92,WNW,292,4.0,5.0,53,0.00,,,0.00,Rainwise IP-100,2013-04-10 16:25:00,
2013-04-10 12:30:00,78.0,57.5,27.91,NW,315,0.0,4.0,49,0.00,,,0.00,Rainwise IP-100,2013-04-10 16:30:00,
2013-04-10 12:35:00,78.0,57.5,27.91,NW,315,0.0,6.0,49,0.00,,,0.00,Rainwise IP-100,2013-04-10 16:35:00,
2013-04-10 12:40:00,79.0,57.0,27.89,NNE,22,1.0,4.0,47,0.00,,,0.00,Rainwise IP-100,2013-04-10 16:40:00,
2013-04-10 12:45:00,80.0,58.0,27.89,NNE,22,0.0,3.0,48,0.00,,,0.00,Rainwise IP-100,2013-04-10 16:45:00,
2013-04-10 12:50:00,79.0,56.5,27.88,NW,315,0.0,4.0,46,0.00,,,0.00,Rainwise IP-100,2013-04-10 16:50:00,
2013-04-10 12:55:00,80.0,57.5,27.88,NNW,337,0.0,4.0,47,0.00,,,0.00,Rainwise IP-100,2013-04-10 16:55:00,
2013-04-10 13:00:00,80.0,57.5,27.88,North,360,0.0,0.0,47,0.00,,,0.00,Rainwise IP-100,2013-04-10 17:00:00,
2013-04-10 13:05:00,80.0,57.5,27.88,SSW,202,0.0,0.0,47,0.00,,,0.00,Rainwise IP-100,2013-04-10 17:05:00,
2013-04-10 13:10:00,81.0,57.5,27.87,NW,315,0.0,0.0,45,0.00,,,0.00,Rainwise IP-100,2013-04-10 17:10:00,
2013-04-10 13:15:00,82.0,59.0,27.87,NNW,337,0.0,0.0,45,0.00,,,0.00,Rainwise IP-100,2013-04-10 17:15:00,
2013-04-10 13:20:00,82.0,56.0,27.86,NW,315,0.0,0.0,41,0.00,,,0.00,Rainwise IP-100,2013-04-10 17:20:00,
2013-04-10 13:25:00,80.0,57.0,27.86,WNW,292,0.0,0.0,46,0.00,,,0.00,Rainwise IP-100,2013-04-10 17:25:00,
2013-04-10 13:30:00,81.0,56.0,27.86,West,270,0.0,0.0,42,0.00,,,0.00,Rainwise IP-100,2013-04-10 17:30:00,
2013-04-10 13:35:00,82.0,56.5,27.86,SW,225,0.0,0.0,42,0.00,,,0.00,Rainwise IP-100,2013-04-10 17:35:00,
2013-04-10 13:40:00,83.0,57.5,27.85,SE,135,0.0,0.0,42,0.00,,,0.00,Rainwise IP-100,2013-04-10 17:40:00,
2013-04-10 13:45:00,82.0,55.0,27.85,SE,135,0.0,0.0,40,0.00,,,0.00,Rainwise IP-100,2013-04-10 17:45:00,
2013-04-10 13:50:00,83.0,57.0,27.85,SE,135,0.0,0.0,41,0.00,,,0.00,Rainwise IP-100,2013-04-10 17:50:00,
2013-04-10 13:55:00,83.0,56.5,27.85,SSE,157,0.0,5.0,40,0.00,,,0.00,Rainwise IP-100,2013-04-10 17:55:00,
2013-04-10 14:00:00,81.0,53.5,27.85,SSW,202,0.0,6.0,38,0.00,,,0.00,Rainwise IP-100,2013-04-10 18:00:00,
2013-04-10 14:05:00,82.0,56.5,27.85,ESE,112,0.0,0.0,42,0.00,,,0.00,Rainwise IP-100,2013-04-10 18:05:00,
2013-04-10 14:10:00,83.0,56.5,27.84,SE,135,0.0,7.0,40,0.00,,,0.00,Rainwise IP-100,2013-04-10 18:10:00,
2013-04-10 14:15:00,82.0,55.0,27.84,ENE,67,0.0,5.0,40,0.00,,,0.00,Rainwise IP-100,2013-04-10 18:15:00,
2013-04-10 14:20:00,82.0,56.5,27.84,ESE,112,6.0,9.0,42,0.00,,,0.00,Rainwise IP-100,2013-04-10 18:20:00,
2013-04-10 14:25:00,82.0,59.0,27.84,SSW,202,7.0,10.0,45,0.00,,,0.00,Rainwise IP-100,2013-04-10 18:25:00,
2013-04-10 14:30:00,81.0,58.0,27.85,SW,225,0.0,7.0,46,0.00,,,0.00,Rainwise IP-100,2013-04-10 18:30:00,
2013-04-10 14:35:00,81.0,59.0,27.85,SSW,202,0.0,7.0,47,0.00,,,0.00,Rainwise IP-100,2013-04-10 18:35:00,
2013-04-10 14:40:00,82.0,57.5,27.85,SSE,157,4.0,8.0,44,0.00,,,0.00,Rainwise IP-100,2013-04-10 18:40:00,
2013-04-10 14:45:00,81.0,59.0,27.85,ENE,67,0.0,8.0,47,0.00,,,0.00,Rainwise IP-100,2013-04-10 18:45:00,
2013-04-10 14:50:00,82.0,60.0,27.84,NE,45,0.0,8.0,47,0.00,,,0.00,Rainwise IP-100,2013-04-10 18:50:00,
2013-04-10 14:55:00,82.0,60.0,27.84,NNW,337,0.0,5.0,47,0.00,,,0.00,Rainwise IP-100,2013-04-10 18:55:00,
2013-04-10 15:00:00,81.0,57.5,27.84,SE,135,4.0,8.0,45,0.00,,,0.00,Rainwise IP-100,2013-04-10 19:00:00,
2013-04-10 15:05:00,81.0,58.0,27.84,SE,135,0.0,9.0,46,0.00,,,0.00,Rainwise IP-100,2013-04-10 19:05:00,
2013-04-10 15:10:00,81.0,58.0,27.83,East,90,3.0,6.0,46,0.00,,,0.00,Rainwise IP-100,2013-04-10 19:10:00,
2013-04-10 15:15:00,81.0,57.0,27.83,SSE,157,3.0,9.0,44,0.00,,,0.00,Rainwise IP-100,2013-04-10 19:15:00,
2013-04-10 15:20:00,82.0,59.5,27.83,ESE,112,3.0,5.0,46,0.00,,,0.00,Rainwise IP-100,2013-04-10 19:20:00,
2013-04-10 15:25:00,82.0,57.5,27.83,SSE,157,0.0,8.0,44,0.00,,,0.00,Rainwise IP-100,2013-04-10 19:25:00,
2013-04-10 15:30:00,81.0,57.0,27.83,South,180,5.0,7.0,44,0.00,,,0.00,Rainwise IP-100,2013-04-10 19:30:00,
2013-04-10 15:35:00,81.0,57.5,27.83,ESE,112,4.0,7.0,45,0.00,,,0.00,Rainwise IP-100,2013-04-10 19:35:00,
2013-04-10 15:40:00,81.0,59.0,27.83,SSE,157,0.0,5.0,47,0.00,,,0.00,Rainwise IP-100,2013-04-10 19:40:00,
2013-04-10 15:47:00,82.0,59.0,27.83,SW,225,4.0,0.0,45,0.00,,,0.00,Rainwise IP-100,2013-04-10 19:47:00,
2013-04-10 15:52:00,81.0,57.0,27.82,SE,135,5.0,5.0,44,0.00,,,0.00,Rainwise IP-100,2013-04-10 19:52:00,
2013-04-10 15:57:00,81.0,57.5,27.82,SE,135,4.0,10.0,45,0.00,,,0.00,Rainwise IP-100,2013-04-10 19:57:00,
2013-04-10 16:02:00,81.0,58.0,27.82,SE,135,2.0,6.0,46,0.00,,,0.00,Rainwise IP-100,2013-04-10 20:02:00,
2013-04-10 16:07:00,82.0,59.0,27.82,SSE,157,5.0,9.0,45,0.00,,,0.00,Rainwise IP-100,2013-04-10 20:07:00,
2013-04-10 16:12:00,81.0,58.0,27.82,SSE,157,2.0,9.0,46,0.00,,,0.00,Rainwise IP-100,2013-04-10 20:12:00,
2013-04-10 16:17:00,82.0,57.5,27.82,SSW,202,4.0,9.0,44,0.00,,,0.00,Rainwise IP-100,2013-04-10 20:17:00,
2013-04-10 16:22:00,80.0,56.5,27.81,ESE,112,4.0,11.0,45,0.00,,,0.00,Rainwise IP-100,2013-04-10 20:22:00,
2013-04-10 16:28:00,81.0,58.0,27.81,NNE,22,0.0,3.0,46,0.00,,,0.00,Rainwise IP-100,2013-04-10 20:28:00,
2013-04-10 16:33:00,81.0,58.0,27.81,East,90,4.0,5.0,46,0.00,,,0.00,Rainwise IP-100,2013-04-10 20:33:00,
2013-04-10 16:38:00,82.0,59.0,27.80,South,180,2.0,7.0,45,0.00,,,0.00,Rainwise IP-100,2013-04-10 20:38:00,
2013-04-10 16:43:00,82.0,57.0,27.80,SSE,157,0.0,5.0,43,0.00,,,0.00,Rainwise IP-100,2013-04-10 20:43:00,
2013-04-10 16:48:00,82.0,57.5,27.80,East,90,2.0,4.0,44,0.00,,,0.00,Rainwise IP-100,2013-04-10 20:48:00,
2013-04-10 16:53:00,82.0,57.0,27.80,WSW,247,5.0,6.0,43,0.00,,,0.00,Rainwise IP-100,2013-04-10 20:53:00,
2013-04-10 16:58:00,81.0,57.5,27.80,SSE,157,4.0,7.0,45,0.00,,,0.00,Rainwise IP-100,2013-04-10 20:58:00,
2013-04-10 17:03:00,81.0,57.0,27.80,SSW,202,2.0,4.0,44,0.00,,,0.00,Rainwise IP-100,2013-04-10 21:03:00,
2013-04-10 17:08:00,81.0,57.5,27.80,East,90,0.0,6.0,45,0.00,,,0.00,Rainwise IP-100,2013-04-10 21:08:00,
2013-04-10 17:13:00,80.0,57.5,27.80,East,90,1.0,4.0,47,0.00,,,0.00,Rainwise IP-100,2013-04-10 21:13:00,
2013-04-10 17:18:00,80.0,57.0,27.80,SSW,202,3.0,6.0,46,0.00,,,0.00,Rainwise IP-100,2013-04-10 21:18:00,
2013-04-10 17:23:00,80.0,57.0,27.80,SSE,157,4.0,6.0,46,0.00,,,0.00,Rainwise IP-100,2013-04-10 21:23:00,
2013-04-10 17:28:00,79.0,56.0,27.80,SSE,157,0.0,8.0,45,0.00,,,0.00,Rainwise IP-100,2013-04-10 21:28:00,
2013-04-10 17:33:00,80.0,57.0,27.80,SW,225,1.0,7.0,46,0.00,,,0.00,Rainwise IP-100,2013-04-10 21:33:00,
2013-04-10 17:38:00,79.0,56.0,27.80,SSE,157,5.0,8.0,45,0.00,,,0.00,Rainwise IP-100,2013-04-10 21:38:00,
2013-04-10 17:44:00,79.0,56.0,27.80,SW,225,3.0,9.0,45,0.00,,,0.00,Rainwise IP-100,2013-04-10 21:44:00,
2013-04-10 17:49:00,79.0,56.0,27.79,SW,225,3.0,7.0,45,0.00,,,0.00,Rainwise IP-100,2013-04-10 21:49:00,
2013-04-10 17:54:00,79.0,56.5,27.79,SSW,202,2.0,6.0,46,0.00,,,0.00,Rainwise IP-100,2013-04-10 21:54:00,
2013-04-10 17:59:00,79.0,56.0,27.79,WSW,247,0.0,5.0,45,0.00,,,0.00,Rainwise IP-100,2013-04-10 21:59:00,
2013-04-10 18:04:00,78.0,56.0,27.79,SE,135,3.0,8.0,46,0.00,,,0.00,Rainwise IP-100,2013-04-10 22:04:00,
2013-04-10 18:09:00,79.0,56.5,27.79,WSW,247,1.0,6.0,46,0.00,,,0.00,Rainwise IP-100,2013-04-10 22:09:00,
2013-04-10 18:14:00,78.0,56.0,27.79,SSW,202,4.0,8.0,46,0.00,,,0.00,Rainwise IP-100,2013-04-10 22:14:00,
2013-04-10 18:19:00,78.0,57.0,27.79,SW,225,0.0,8.0,48,0.00,,,0.00,Rainwise IP-100,2013-04-10 22:19:00,
2013-04-10 18:24:00,77.0,56.0,27.79,SE,135,6.0,8.0,48,0.00,,,0.00,Rainwise IP-100,2013-04-10 22:24:00,
2013-04-10 18:29:00,77.0,56.5,27.79,SSW,202,3.0,9.0,49,0.00,,,0.00,Rainwise IP-100,2013-04-10 22:29:00,
2013-04-10 18:34:00,77.0,57.0,27.79,WSW,247,7.0,10.0,50,0.00,,,0.00,Rainwise IP-100,2013-04-10 22:34:00,
2013-04-10 18:39:00,77.0,57.0,27.79,SSW,202,4.0,9.0,50,0.00,,,0.00,Rainwise IP-100,2013-04-10 22:39:00,
2013-04-10 18:44:00,77.0,57.5,27.79,SSW,202,4.0,8.0,51,0.00,,,0.00,Rainwise IP-100,2013-04-10 22:44:00,
2013-04-10 18:49:00,77.0,57.0,27.79,SSW,202,0.0,8.0,50,0.00,,,0.00,Rainwise IP-100,2013-04-10 22:49:00,
2013-04-10 18:54:00,76.0,56.5,27.79,SSW,202,2.0,9.0,51,0.00,,,0.00,Rainwise IP-100,2013-04-10 22:54:00,
2013-04-10 18:59:00,76.0,56.5,27.79,SW,225,0.0,9.0,51,0.00,,,0.00,Rainwise IP-100,2013-04-10 22:59:00,
2013-04-10 19:04:00,76.0,57.5,27.79,SSW,202,0.0,8.0,53,0.00,,,0.00,Rainwise IP-100,2013-04-10 23:04:00,
2013-04-10 19:09:00,76.0,57.0,27.79,NW,315,3.0,8.0,52,0.00,,,0.00,Rainwise IP-100,2013-04-10 23:09:00,
2013-04-10 19:14:00,75.0,57.0,27.79,WSW,247,1.0,8.0,53,0.00,,,0.00,Rainwise IP-100,2013-04-10 23:14:00,
2013-04-10 19:19:00,75.0,57.5,27.79,SSE,157,0.0,6.0,54,0.00,,,0.00,Rainwise IP-100,2013-04-10 23:19:00,
2013-04-10 19:24:00,75.0,57.5,27.79,WSW,247,3.0,6.0,55,0.00,,,0.00,Rainwise IP-100,2013-04-10 23:24:00,
2013-04-10 19:29:00,74.0,57.5,27.79,SSW,202,4.0,9.0,56,0.00,,,0.00,Rainwise IP-100,2013-04-10 23:29:00,
2013-04-10 19:34:00,74.0,57.5,27.79,ESE,112,4.0,9.0,56,0.00,,,0.00,Rainwise IP-100,2013-04-10 23:34:00,
2013-04-10 19:39:00,74.0,57.5,27.80,SSW,202,1.0,8.0,56,0.00,,,0.00,Rainwise IP-100,2013-04-10 23:39:00,
2013-04-10 19:44:00,73.0,57.5,27.80,SSW,202,2.0,8.0,58,0.00,,,0.00,Rainwise IP-100,2013-04-10 23:44:00,
2013-04-10 19:49:00,73.0,57.5,27.80,SSW,202,2.0,4.0,58,0.00,,,0.00,Rainwise IP-100,2013-04-10 23:49:00,
2013-04-10 19:54:00,73.0,58.0,27.80,SW,225,0.0,5.0,60,0.00,,,0.00,Rainwise IP-100,2013-04-10 23:54:00,
2013-04-10 19:59:00,73.0,58.0,27.80,SSE,157,5.0,5.0,60,0.00,,,0.00,Rainwise IP-100,2013-04-10 23:59:00,
2013-04-10 20:04:00,72.0,57.5,27.80,SSE,157,0.0,5.0,61,0.00,,,0.00,Rainwise IP-100,2013-04-11 00:04:00,
2013-04-10 20:09:00,72.0,57.5,27.80,SSE,157,3.0,8.0,61,0.00,,,0.00,Rainwise IP-100,2013-04-11 00:09:00,
2013-04-10 20:14:00,72.0,57.5,27.80,SSE,157,3.0,6.0,61,0.00,,,0.00,Rainwise IP-100,2013-04-11 00:14:00,
2013-04-10 20:19:00,71.0,57.0,27.80,SSE,157,0.0,4.0,62,0.00,,,0.00,Rainwise IP-100,2013-04-11 00:19:00,
2013-04-10 20:24:00,71.0,58.0,27.80,SE,135,0.0,3.0,64,0.00,,,0.00,Rainwise IP-100,2013-04-11 00:24:00,
2013-04-10 20:29:00,71.0,57.5,27.80,SW,225,2.0,7.0,63,0.00,,,0.00,Rainwise IP-100,2013-04-11 00:29:00,
2013-04-10 20:34:00,71.0,57.5,27.80,SSW,202,3.0,6.0,63,0.00,,,0.00,Rainwise IP-100,2013-04-11 00:34:00,
2013-04-10 20:39:00,70.0,57.5,27.80,SSE,157,0.0,4.0,65,0.00,,,0.00,Rainwise IP-100,2013-04-11 00:39:00,
2013-04-10 20:44:00,70.0,57.5,27.80,South,180,3.0,6.0,65,0.00,,,0.00,Rainwise IP-100,2013-04-11 00:44:00,
2013-04-10 20:49:00,70.0,58.0,27.80,WSW,247,0.0,5.0,66,0.00,,,0.00,Rainwise IP-100,2013-04-11 00:49:00,
2013-04-10 20:54:00,70.0,58.0,27.80,SSE,157,0.0,6.0,66,0.00,,,0.00,Rainwise IP-100,2013-04-11 00:54:00,
2013-04-10 20:59:00,70.0,58.0,27.80,South,180,0.0,7.0,66,0.00,,,0.00,Rainwise IP-100,2013-04-11 00:59:00,
2013-04-10 21:04:00,70.0,58.0,27.80,SSW,202,2.0,4.0,66,0.00,,,0.00,Rainwise IP-100,2013-04-11 01:04:00,
2013-04-10 21:09:00,69.0,57.0,27.80,South,180,4.0,6.0,66,0.00,,,0.00,Rainwise IP-100,2013-04-11 01:09:00,
2013-04-10 21:14:00,69.0,57.0,27.80,SSW,202,0.0,7.0,66,0.00,,,0.00,Rainwise IP-100,2013-04-11 01:14:00,
2013-04-10 21:19:00,69.0,57.5,27.80,WSW,247,0.0,4.0,67,0.00,,,0.00,Rainwise IP-100,2013-04-11 01:19:00,
2013-04-10 21:24:00,69.0,57.5,27.80,SSW,202,1.0,4.0,67,0.00,,,0.00,Rainwise IP-100,2013-04-11 01:24:00,
2013-04-10 21:29:00,69.0,57.5,27.80,WSW,247,0.0,5.0,67,0.00,,,0.00,Rainwise IP-100,2013-04-11 01:29:00,
2013-04-10 21:34:00,69.0,57.0,27.80,SW,225,0.0,5.0,66,0.00,,,0.00,Rainwise IP-100,2013-04-11 01:34:00,
2013-04-10 21:39:00,69.0,57.0,27.80,WSW,247,1.0,5.0,66,0.00,,,0.00,Rainwise IP-100,2013-04-11 01:39:00,
2013-04-10 21:44:00,69.0,57.0,27.80,WSW,247,0.0,6.0,66,0.00,,,0.00,Rainwise IP-100,2013-04-11 01:44:00,
2013-04-10 21:49:00,69.0,57.0,27.80,South,180,4.0,5.0,66,0.00,,,0.00,Rainwise IP-100,2013-04-11 01:49:00,
2013-04-10 21:54:00,69.0,57.5,27.80,SW,225,0.0,6.0,67,0.00,,,0.00,Rainwise IP-100,2013-04-11 01:54:00,
2013-04-10 21:59:00,68.0,57.0,27.80,WSW,247,0.0,6.0,68,0.00,,,0.00,Rainwise IP-100,2013-04-11 01:59:00,
2013-04-10 22:04:00,68.0,57.0,27.80,WSW,247,1.0,3.0,68,0.00,,,0.00,Rainwise IP-100,2013-04-11 02:04:00,
2013-04-10 22:09:00,68.0,57.5,27.80,SSW,202,0.0,3.0,69,0.00,,,0.00,Rainwise IP-100,2013-04-11 02:09:00,
2013-04-10 22:14:00,68.0,57.5,27.80,WSW,247,0.0,2.0,69,0.00,,,0.00,Rainwise IP-100,2013-04-11 02:14:00,
2013-04-10 22:19:00,67.0,56.5,27.80,SW,225,2.0,2.0,69,0.00,,,0.00,Rainwise IP-100,2013-04-11 02:19:00,
2013-04-10 22:24:00,67.0,56.5,27.80,West,270,0.0,2.0,69,0.00,,,0.00,Rainwise IP-100,2013-04-11 02:24:00,
2013-04-10 22:29:00,67.0,56.5,27.80,SSE,157,0.0,3.0,69,0.00,,,0.00,Rainwise IP-100,2013-04-11 02:29:00,
2013-04-10 22:34:00,67.0,56.5,27.80,South,180,0.0,4.0,69,0.00,,,0.00,Rainwise IP-100,2013-04-11 02:34:00,
2013-04-10 22:39:00,67.0,57.0,27.79,West,270,1.0,4.0,70,0.00,,,0.00,Rainwise IP-100,2013-04-11 02:39:00,
2013-04-10 22:44:00,67.0,57.5,27.79,SSW,202,0.0,5.0,71,0.00,,,0.00,Rainwise IP-100,2013-04-11 02:44:00,
2013-04-10 22:49:00,66.0,56.0,27.79,WSW,247,0.0,0.0,71,0.00,,,0.00,Rainwise IP-100,2013-04-11 02:49:00,
2013-04-10 22:54:00,66.0,57.0,27.79,WSW,247,0.0,0.0,73,0.00,,,0.00,Rainwise IP-100,2013-04-11 02:54:00,
2013-04-10 22:59:00,66.0,57.0,27.80,WSW,247,0.0,0.0,74,0.00,,,0.00,Rainwise IP-100,2013-04-11 02:59:00,
2013-04-10 23:04:00,65.0,57.5,27.80,WSW,247,0.0,0.0,77,0.00,,,0.00,Rainwise IP-100,2013-04-11 03:04:00,
2013-04-10 23:09:00,65.0,57.5,27.80,WSW,247,0.0,0.0,77,0.00,,,0.00,Rainwise IP-100,2013-04-11 03:09:00,
2013-04-10 23:14:00,64.0,57.0,27.80,NE,45,0.0,0.0,79,0.00,,,0.00,Rainwise IP-100,2013-04-11 03:14:00,
2013-04-10 23:19:00,65.0,58.0,27.79,NE,45,0.0,2.0,79,0.00,,,0.00,Rainwise IP-100,2013-04-11 03:19:00,
2013-04-10 23:24:00,64.0,57.5,27.79,NE,45,0.0,0.0,80,0.00,,,0.00,Rainwise IP-100,2013-04-11 03:24:00,
2013-04-10 23:29:00,64.0,59.5,27.79,NE,45,0.0,0.0,85,0.00,,,0.00,Rainwise IP-100,2013-04-11 03:29:00,
2013-04-10 23:34:00,63.0,58.0,27.79,NE,45,0.0,0.0,85,0.00,,,0.00,Rainwise IP-100,2013-04-11 03:34:00,
2013-04-10 23:39:00,63.0,57.5,27.80,NE,45,0.0,0.0,83,0.00,,,0.00,Rainwise IP-100,2013-04-11 03:39:00,
2013-04-10 23:44:00,63.0,58.0,27.80,NE,45,0.0,0.0,84,0.00,,,0.00,Rainwise IP-100,2013-04-11 03:44:00,
2013-04-10 23:49:00,64.0,59.0,27.80,ESE,112,4.0,4.0,84,0.00,,,0.00,Rainwise IP-100,2013-04-11 03:49:00,
2013-04-10 23:54:00,65.0,59.0,27.80,SSE,157,1.0,5.0,81,0.00,,,0.00,Rainwise IP-100,2013-04-11 03:54:00,
2013-04-10 23:59:00,65.0,57.5,27.80,SE,135,0.0,4.0,78,0.00,,,0.00,Rainwise IP-100,2013-04-11 03:59:00,